Time;durP1;ratioP1;P1;durP2;ratioP2;P2;SDS_P1;SDS_P2;PMS_P1;PMS_P2;Temp;Humidity;BMP_temperature;BMP_pressure;BME280_temperature;BME280_humidity;BME280_pressure;Samples;Min_cycle;Max_cycle;Signal;HPM_P1;HPM_P2
2024/04/17 00:00:22;;;;;;;;;;;;;;;4.32;100.00;94548.16;5418524;26;20403;-71
2024/04/17 00:02:49;;;;;;;;;;;;;;;4.33;100.00;94100.22;5416183;26;19928;-71
2024/04/17 00:05:16;;;;;;;;;;;;;;;4.38;100.00;94047.00;5420999;26;20366;-70
2024/04/17 00:07:44;;;;;;;;;;;;;;;4.35;100.00;94018.28;5419031;26;19928;-71
2024/04/17 00:10:11;;;;;;;;;;;;;;;4.35;100.00;93693.78;5420738;26;20371;-70
2024/04/17 00:12:38;;;;;;;;;;;;;;;4.29;100.00;93599.19;5418210;26;19929;-71
2024/04/17 00:15:06;;;;;;;;;;;;;;;4.31;100.00;93530.53;5416192;26;19943;-70
2024/04/17 00:17:33;;;;;;;;;;;;;;;4.32;100.00;93484.25;5390849;26;19935;-71
2024/04/17 00:20:00;;;;;;;;;;;;;;;4.34;100.00;93436.09;5388314;26;20262;-71
2024/04/17 00:22:28;;;;;;;;;;;;;;;4.34;100.00;93409.50;5421730;26;19933;-70
2024/04/17 00:24:55;;;;;;;;;;;;;;;4.33;100.00;93387.44;5423851;26;19929;-71
2024/04/17 00:27:22;;;;;;;;;;;;;;;4.32;100.00;93378.66;5419596;26;19929;-71
2024/04/17 00:29:49;;;;;;;;;;;;;;;4.39;100.00;93370.28;5424129;26;20007;-71
2024/04/17 00:32:17;;;;;;;;;;;;;;;4.41;100.00;93364.69;5423576;26;19935;-71
2024/04/17 00:34:44;;;;;;;;;;;;;;;4.47;100.00;93356.31;5424022;26;20373;-71
2024/04/17 00:37:11;;;;;;;;;;;;;;;4.50;100.00;93328.34;5424867;26;19929;-71
2024/04/17 00:39:38;;;;;;;;;;;;;;;4.44;100.00;93319.69;5423959;26;20525;-71
2024/04/17 00:42:06;;;;;;;;;;;;;;;4.50;100.00;93286.56;5421813;26;19928;-71
2024/04/17 00:44:33;;;;;;;;;;;;;;;4.48;100.00;93267.47;5423484;26;19931;-71
2024/04/17 00:47:00;;;;;;;;;;;;;;;4.51;100.00;93256.22;5423984;26;19956;-71
2024/04/17 00:49:28;;;;;;;;;;;;;;;4.51;100.00;93256.22;5422463;26;19928;-71
2024/04/17 00:51:55;;;;;;;;;;;;;;;4.45;100.00;93244.13;5421261;26;19928;-71
2024/04/17 00:54:23;;;;;;;;;;;;;;;4.46;100.00;93239.56;5424854;26;19935;-71
2024/04/17 00:56:50;;;;;;;;;;;;;;;4.41;100.00;93237.81;5389089;26;20370;-71
2024/04/17 00:59:18;;;;;;;;;;;;;;;4.36;100.00;93234.47;5421868;26;19928;-71
2024/04/17 01:01:45;;;;;;;;;;;;;;;4.32;100.00;93223.63;5422689;26;19929;-71
2024/04/17 01:04:12;;;;;;;;;;;;;;;4.28;100.00;93218.13;5424781;26;20274;-71
2024/04/17 01:06:42;;;;;;;;;;;;;;;4.22;100.00;93199.91;5422707;26;19928;-71
2024/04/17 01:09:09;;;;;;;;;;;;;;;4.15;100.00;93195.00;5388979;26;19939;-71
2024/04/17 01:11:40;;;;;;;;;;;;;;;4.23;100.00;93201.50;5421772;26;19935;-71
2024/04/17 01:14:08;;;;;;;;;;;;;;;4.23;100.00;93209.47;5421678;26;19928;-71
2024/04/17 01:16:40;;;;;;;;;;;;;;;4.08;100.00;93221.19;5426426;26;19929;-70
2024/04/17 01:19:08;;;;;;;;;;;;;;;4.07;100.00;93216.16;5421515;26;19929;-71
2024/04/17 01:21:36;;;;;;;;;;;;;;;4.12;100.00;93235.47;5391555;26;19928;-71
2024/04/17 01:24:03;;;;;;;;;;;;;;;4.12;100.00;93232.00;5423999;26;19929;-71
2024/04/17 01:26:31;;;;;;;;;;;;;;;4.05;100.00;93252.88;5421506;26;19929;-71
2024/04/17 01:28:58;;;;;;;;;;;;;;;4.05;100.00;93274.16;5420225;26;20355;-71
2024/04/17 01:31:25;;;;;;;;;;;;;;;4.14;100.00;93314.94;5422863;26;19929;-71
2024/04/17 01:33:52;;;;;;;;;;;;;;;4.13;100.00;93326.66;5423237;26;19935;-71
2024/04/17 01:36:20;;;;;;;;;;;;;;;4.17;100.00;93351.53;5420805;26;19929;-70
2024/04/17 01:38:47;;;;;;;;;;;;;;;4.13;100.00;93353.22;5420796;26;19928;-70
2024/04/17 01:41:14;;;;;;;;;;;;;;;4.09;100.00;93370.84;5421122;26;19935;-71
2024/04/17 01:43:42;;;;;;;;;;;;;;;4.06;100.00;93398.00;5419180;26;20356;-71
2024/04/17 01:46:09;;;;;;;;;;;;;;;4.12;100.00;93413.59;5417203;26;19936;-71
2024/04/17 01:48:36;;;;;;;;;;;;;;;4.10;100.00;93414.94;5422004;26;19929;-70
2024/04/17 01:51:04;;;;;;;;;;;;;;;4.10;100.00;93452.94;5418185;26;19928;-71
2024/04/17 01:53:31;;;;;;;;;;;;;;;4.03;100.00;93752.13;5424302;26;19929;-71
2024/04/17 01:55:58;;;;;;;;;;;;;;;4.00;100.00;93981.31;5421132;26;19928;-70
2024/04/17 01:58:26;;;;;;;;;;;;;;;3.99;100.00;94014.28;5424093;26;19928;-71
2024/04/17 02:00:53;;;;;;;;;;;;;;;3.98;100.00;94045.38;5421335;26;19928;-71
2024/04/17 02:03:20;;;;;;;;;;;;;;;4.00;100.00;94069.03;5423893;26;19956;-71
2024/04/17 02:05:48;;;;;;;;;;;;;;;4.00;100.00;94114.25;5420616;26;19936;-70
2024/04/17 02:08:15;;;;;;;;;;;;;;;3.98;100.00;94166.88;5424694;26;19934;-71
2024/04/17 02:10:42;;;;;;;;;;;;;;;3.91;100.00;94265.53;5418750;26;20284;-70
2024/04/17 02:13:10;;;;;;;;;;;;;;;3.86;100.00;94563.25;5390876;26;19939;-71
2024/04/17 02:15:37;;;;;;;;;;;;;;;3.85;100.00;94626.25;5424513;26;19928;-71
2024/04/17 02:18:04;;;;;;;;;;;;;;;3.86;100.00;94680.19;5421278;26;19929;-71
2024/04/17 02:20:32;;;;;;;;;;;;;;;3.85;100.00;94724.59;5419720;26;19935;-71
2024/04/17 02:22:59;;;;;;;;;;;;;;;3.82;100.00;94764.97;5420286;26;20385;-71
2024/04/17 02:25:26;;;;;;;;;;;;;;;3.80;100.00;94788.34;5421877;26;19935;-71
2024/04/17 02:27:54;;;;;;;;;;;;;;;3.84;100.00;94861.22;5419574;26;19935;-72
2024/04/17 02:30:21;;;;;;;;;;;;;;;3.91;100.00;94882.25;5423822;26;19933;-71
2024/04/17 02:32:50;;;;;;;;;;;;;;;3.95;100.00;94883.34;5423142;26;19935;-71
2024/04/17 02:35:17;;;;;;;;;;;;;;;3.96;100.00;94900.09;5420537;26;20617;-71
2024/04/17 02:37:45;;;;;;;;;;;;;;;3.92;100.00;94900.63;5423075;26;19928;-71
2024/04/17 02:40:12;;;;;;;;;;;;;;;3.91;100.00;94893.69;5388503;26;21020;-71
2024/04/17 02:42:39;;;;;;;;;;;;;;;3.83;100.00;94898.69;5419260;26;19938;-71
2024/04/17 02:45:06;;;;;;;;;;;;;;;3.88;100.00;94902.19;5421950;26;20524;-71
2024/04/17 02:47:34;;;;;;;;;;;;;;;3.90;100.00;94916.03;5423893;26;20275;-71
2024/04/17 02:50:01;;;;;;;;;;;;;;;3.83;100.00;94910.13;5421798;26;19928;-71
2024/04/17 02:52:29;;;;;;;;;;;;;;;3.86;100.00;94927.44;5418768;26;19936;-72
2024/04/17 02:57:57;;;;;;;;;;;;;;;3.82;100.00;94926.31;5377327;26;19929;-71
2024/04/17 03:00:25;;;;;;;;;;;;;;;3.83;100.00;94944.66;5385692;26;19929;-71
2024/04/17 03:02:52;;;;;;;;;;;;;;;3.82;100.00;94952.91;5388589;26;19929;-71
2024/04/17 03:05:19;;;;;;;;;;;;;;;3.83;100.00;94952.66;5385576;26;20324;-72
2024/04/17 03:07:47;;;;;;;;;;;;;;;3.88;100.00;94965.97;5384402;26;19939;-72
2024/04/17 03:10:14;;;;;;;;;;;;;;;3.92;100.00;94996.34;5385978;26;19930;-71
2024/04/17 03:12:41;;;;;;;;;;;;;;;3.87;100.00;95022.84;5383064;26;20076;-71
2024/04/17 03:15:12;;;;;;;;;;;;;;;3.90;100.00;95027.69;5384665;26;20381;-71
2024/04/17 03:17:39;;;;;;;;;;;;;;;3.92;100.00;95043.41;5384188;26;19933;-71
2024/04/17 03:20:07;;;;;;;;;;;;;;;3.88;100.00;95051.06;5386485;26;19937;-72
2024/04/17 03:22:34;;;;;;;;;;;;;;;3.89;100.00;95059.84;5386851;26;19930;-71
2024/04/17 03:25:01;;;;;;;;;;;;;;;3.86;100.00;95073.66;5386274;26;20026;-71
2024/04/17 03:27:28;;;;;;;;;;;;;;;3.86;100.00;95095.72;5384973;26;20569;-74
2024/04/17 03:29:56;;;;;;;;;;;;;;;3.87;100.00;95102.63;5383666;26;19936;-71
2024/04/17 03:32:23;;;;;;;;;;;;;;;3.83;100.00;95106.03;5382566;26;19935;-74
2024/04/17 03:34:50;;;;;;;;;;;;;;;3.87;100.00;95123.88;5382692;26;19941;-73
2024/04/17 03:37:18;;;;;;;;;;;;;;;3.85;100.00;95135.84;5386946;26;19928;-71
2024/04/17 03:39:45;;;;;;;;;;;;;;;3.80;100.00;95144.53;5384970;26;19940;-71
2024/04/17 03:42:12;;;;;;;;;;;;;;;3.84;100.00;95172.25;5383753;26;19933;-71
2024/04/17 03:44:39;;;;;;;;;;;;;;;3.75;100.00;95168.41;5382903;26;20554;-73
2024/04/17 03:47:07;;;;;;;;;;;;;;;3.69;100.00;95188.00;5390525;26;20270;-73
2024/04/17 03:49:34;;;;;;;;;;;;;;;3.67;100.00;95203.38;5384858;26;20369;-71
2024/04/17 03:52:02;;;;;;;;;;;;;;;3.64;100.00;95229.66;5384646;26;20392;-73
2024/04/17 03:54:29;;;;;;;;;;;;;;;3.68;100.00;95241.38;5382176;26;20266;-74
2024/04/17 03:56:56;;;;;;;;;;;;;;;3.70;100.00;95261.38;5384160;26;19938;-73
2024/04/17 03:59:23;;;;;;;;;;;;;;;3.66;100.00;95268.19;5384410;26;19936;-74
2024/04/17 04:01:50;;;;;;;;;;;;;;;3.62;100.00;95283.03;5386848;26;20526;-73
2024/04/17 04:04:18;;;;;;;;;;;;;;;3.62;100.00;95306.16;5389164;26;19930;-73
2024/04/17 04:06:45;;;;;;;;;;;;;;;3.62;100.00;95311.47;5387306;26;20858;-70
2024/04/17 04:09:13;;;;;;;;;;;;;;;3.63;100.00;95327.16;5388228;26;20450;-72
2024/04/17 04:11:40;;;;;;;;;;;;;;;3.61;100.00;95337.22;5387610;26;19929;-71
2024/04/17 04:14:07;;;;;;;;;;;;;;;3.60;100.00;95330.31;5388780;26;19930;-73
2024/04/17 04:16:34;;;;;;;;;;;;;;;3.58;100.00;95336.91;5388615;26;19935;-73
2024/04/17 04:19:02;;;;;;;;;;;;;;;3.52;100.00;95334.16;5387022;26;19929;-73
2024/04/17 04:21:29;;;;;;;;;;;;;;;3.51;100.00;95339.72;5388609;26;19935;-73
2024/04/17 04:23:56;;;;;;;;;;;;;;;3.48;100.00;95337.53;5386133;26;19936;-73
2024/04/17 04:26:23;;;;;;;;;;;;;;;3.47;100.00;95351.88;5389566;26;19935;-73
2024/04/17 04:28:51;;;;;;;;;;;;;;;3.45;100.00;95368.06;5388686;26;19929;-73
2024/04/17 04:31:18;;;;;;;;;;;;;;;3.50;100.00;95388.59;5385229;26;19960;-73
2024/04/17 04:33:45;;;;;;;;;;;;;;;3.48;100.00;95396.81;5393420;26;19929;-73
2024/04/17 04:36:13;;;;;;;;;;;;;;;3.52;100.00;95413.88;5386474;26;20661;-72
2024/04/17 04:38:40;;;;;;;;;;;;;;;3.50;100.00;95423.16;5386707;26;19936;-73
2024/04/17 04:41:07;;;;;;;;;;;;;;;3.48;100.00;95441.19;5388248;26;19937;-72
2024/04/17 04:43:35;;;;;;;;;;;;;;;3.49;100.00;95456.88;5389174;26;19933;-73
2024/04/17 04:46:02;;;;;;;;;;;;;;;3.43;100.00;95472.97;5385426;26;20353;-72
2024/04/17 04:48:30;;;;;;;;;;;;;;;3.38;100.00;95480.81;5386301;26;19929;-73
2024/04/17 04:50:57;;;;;;;;;;;;;;;3.42;100.00;95496.06;5386060;26;19935;-73
2024/04/17 04:53:24;;;;;;;;;;;;;;;3.47;100.00;95512.09;5388376;26;19929;-72
2024/04/17 04:56:03;;;;;;;;;;;;;;;3.49;100.00;95525.97;5389250;26;19934;-74
2024/04/17 04:58:30;;;;;;;;;;;;;;;3.48;100.00;95542.97;5388839;26;19930;-73
2024/04/17 05:00:58;;;;;;;;;;;;;;;3.48;100.00;95555.44;5387899;26;20196;-73
2024/04/17 05:03:25;;;;;;;;;;;;;;;3.47;100.00;95575.88;5386279;26;19929;-70
2024/04/17 05:05:53;;;;;;;;;;;;;;;3.49;100.00;95588.94;5387053;26;19929;-70
2024/04/17 05:08:20;;;;;;;;;;;;;;;3.47;100.00;95606.97;5389819;26;19929;-70
2024/04/17 05:10:47;;;;;;;;;;;;;;;3.49;100.00;95637.56;5387266;26;19935;-71
2024/04/17 05:13:14;;;;;;;;;;;;;;;3.50;100.00;95663.13;5386564;26;19929;-71
2024/04/17 05:15:42;;;;;;;;;;;;;;;3.55;100.00;95686.31;5383894;26;19936;-71
2024/04/17 05:18:09;;;;;;;;;;;;;;;3.56;100.00;95717.19;5384612;26;19929;-71
2024/04/17 05:20:37;;;;;;;;;;;;;;;3.59;100.00;95732.66;5386848;26;19929;-70
2024/04/17 05:23:04;;;;;;;;;;;;;;;3.60;100.00;95755.53;5387284;26;20386;-70
2024/04/17 05:25:32;;;;;;;;;;;;;;;3.60;100.00;95768.81;5384158;26;19929;-70
2024/04/17 05:27:59;;;;;;;;;;;;;;;3.67;100.00;95796.09;5386183;26;19929;-71
2024/04/17 05:30:27;;;;;;;;;;;;;;;3.67;100.00;95822.69;5387354;26;19939;-70
2024/04/17 05:32:54;;;;;;;;;;;;;;;3.70;100.00;95846.16;5388108;26;19929;-72
2024/04/17 05:35:21;;;;;;;;;;;;;;;3.72;100.00;95870.69;5386096;26;19928;-71
2024/04/17 05:37:49;;;;;;;;;;;;;;;3.76;100.00;95898.41;5384815;26;19929;-70
2024/04/17 05:40:16;;;;;;;;;;;;;;;3.82;100.00;95913.44;5386494;26;19935;-73
2024/04/17 05:42:43;;;;;;;;;;;;;;;3.85;100.00;95949.41;5382361;26;20359;-74
2024/04/17 05:45:11;;;;;;;;;;;;;;;3.85;100.00;95966.19;5384943;26;19929;-70
2024/04/17 05:47:38;;;;;;;;;;;;;;;3.85;100.00;95987.47;5383267;26;19929;-72
2024/04/17 05:50:05;;;;;;;;;;;;;;;3.88;100.00;96012.75;5386150;26;19930;-71
2024/04/17 05:52:35;;;;;;;;;;;;;;;3.89;100.00;96031.16;5388509;26;19929;-73
2024/04/17 05:55:03;;;;;;;;;;;;;;;3.86;100.00;96049.44;5385408;26;19935;-73
2024/04/17 05:57:30;;;;;;;;;;;;;;;3.86;100.00;96063.53;5387322;26;19929;-73
2024/04/17 05:59:57;;;;;;;;;;;;;;;3.86;100.00;96079.50;5386246;26;19929;-73
2024/04/17 06:02:25;;;;;;;;;;;;;;;3.91;100.00;96114.19;5386461;26;19929;-73
2024/04/17 06:04:52;;;;;;;;;;;;;;;3.96;100.00;96132.13;5386570;26;19929;-73
2024/04/17 06:07:19;;;;;;;;;;;;;;;3.89;100.00;96142.84;5388536;26;19929;-73
2024/04/17 06:09:47;;;;;;;;;;;;;;;3.89;100.00;96156.16;5386127;26;19935;-71
2024/04/17 06:12:14;;;;;;;;;;;;;;;3.92;100.00;96174.34;5386574;26;19928;-71
2024/04/17 06:14:41;;;;;;;;;;;;;;;3.96;100.00;96197.81;5386537;26;19940;-71
2024/04/17 06:17:08;;;;;;;;;;;;;;;3.96;100.00;96211.09;5387144;26;19935;-70
2024/04/17 06:19:36;;;;;;;;;;;;;;;3.96;100.00;96222.56;5383548;26;19929;-71
2024/04/17 06:22:03;;;;;;;;;;;;;;;3.95;100.00;96241.38;5385039;26;19929;-73
2024/04/17 06:24:31;;;;;;;;;;;;;;;3.96;100.00;96262.44;5387540;26;19929;-73
2024/04/17 06:26:58;;;;;;;;;;;;;;;4.01;100.00;96278.59;5384726;26;19936;-74
2024/04/17 06:29:25;;;;;;;;;;;;;;;4.03;100.00;96299.63;5384980;26;19928;-73
2024/04/17 06:31:52;;;;;;;;;;;;;;;4.08;100.00;96311.25;5387344;26;19929;-73
2024/04/17 06:34:20;;;;;;;;;;;;;;;4.10;100.00;96330.44;5385299;26;19939;-73
2024/04/17 06:36:47;;;;;;;;;;;;;;;4.13;100.00;96345.16;5388168;26;20260;-70
2024/04/17 06:39:14;;;;;;;;;;;;;;;4.10;100.00;96350.91;5385471;26;19929;-71
2024/04/17 06:41:41;;;;;;;;;;;;;;;4.13;100.00;96377.09;5384555;26;19929;-71
2024/04/17 06:44:26;;;;;;;;;;;;;;;4.14;100.00;96389.38;5384760;26;19930;-70
2024/04/17 06:46:53;;;;;;;;;;;;;;;4.15;100.00;96415.75;5386753;26;19945;-74
2024/04/17 06:49:21;;;;;;;;;;;;;;;4.21;100.00;96432.69;5383879;26;20288;-74
2024/04/17 06:51:48;;;;;;;;;;;;;;;4.25;100.00;96449.84;5382232;26;19929;-71
2024/04/17 06:54:15;;;;;;;;;;;;;;;4.20;100.00;96461.16;5386209;26;19945;-71
2024/04/17 06:56:43;;;;;;;;;;;;;;;4.22;100.00;96479.56;5387697;26;20375;-70
2024/04/17 06:59:10;;;;;;;;;;;;;;;4.26;100.00;96489.53;5388296;26;19936;-70
2024/04/17 07:01:37;;;;;;;;;;;;;;;4.26;100.00;96500.19;5384503;26;19929;-70
2024/04/17 07:04:05;;;;;;;;;;;;;;;4.27;100.00;96501.00;5387711;26;19929;-71
2024/04/17 07:06:32;;;;;;;;;;;;;;;4.29;100.00;96505.09;5388264;26;19936;-71
2024/04/17 07:09:03;;;;;;;;;;;;;;;4.35;100.00;96523.88;5388039;26;19941;-73
2024/04/17 07:11:31;;;;;;;;;;;;;;;4.40;100.00;96543.50;5383486;26;19930;-73
2024/04/17 07:13:59;;;;;;;;;;;;;;;4.40;100.00;96556.78;5383772;26;19930;-73
2024/04/17 07:16:26;;;;;;;;;;;;;;;4.46;100.00;96563.91;5388310;26;19929;-72
2024/04/17 07:18:53;;;;;;;;;;;;;;;4.47;100.00;96570.88;5385263;26;20363;-72
2024/04/17 07:21:21;;;;;;;;;;;;;;;4.50;100.00;96574.97;5380739;26;19936;-73
2024/04/17 07:23:48;;;;;;;;;;;;;;;4.56;100.00;96587.41;5386691;26;19940;-73
2024/04/17 07:26:15;;;;;;;;;;;;;;;4.57;100.00;96602.34;5383598;26;19935;-73
2024/04/17 07:28:42;;;;;;;;;;;;;;;4.54;100.00;96587.63;5387771;26;19944;-73
2024/04/17 07:31:10;;;;;;;;;;;;;;;4.56;100.00;96585.56;5385099;26;19936;-73
2024/04/17 07:33:37;;;;;;;;;;;;;;;4.61;100.00;96600.88;5382642;26;20365;-70
2024/04/17 07:36:05;;;;;;;;;;;;;;;4.59;100.00;96601.13;5383623;26;19929;-71
2024/04/17 07:38:32;;;;;;;;;;;;;;;4.59;100.00;96605.63;5382346;26;19936;-70
2024/04/17 07:41:03;;;;;;;;;;;;;;;4.68;100.00;96615.78;5386690;26;20476;-71
2024/04/17 07:43:33;;;;;;;;;;;;;;;4.73;100.00;96617.81;5381985;26;19929;-71
2024/04/17 07:46:01;;;;;;;;;;;;;;;4.61;100.00;96607.03;5386519;26;19930;-71
2024/04/17 07:48:29;;;;;;;;;;;;;;;4.62;100.00;96611.31;5385384;26;19936;-71
2024/04/17 07:50:56;;;;;;;;;;;;;;;4.67;100.00;96613.34;5383594;26;19929;-71
2024/04/17 07:53:24;;;;;;;;;;;;;;;4.68;100.00;96628.28;5382375;26;20156;-71
2024/04/17 07:55:51;;;;;;;;;;;;;;;4.79;100.00;96648.09;5381990;26;19930;-72
2024/04/17 07:58:18;;;;;;;;;;;;;;;4.91;100.00;96662.31;5386772;26;20269;-72
2024/04/17 08:00:46;;;;;;;;;;;;;;;4.93;100.00;96681.59;5388468;26;20793;-71
2024/04/17 08:03:14;;;;;;;;;;;;;;;5.03;100.00;96693.41;5385104;26;19933;-71
2024/04/17 08:05:44;;;;;;;;;;;;;;;5.06;100.00;96713.44;5383349;26;20366;-71
2024/04/17 08:08:11;;;;;;;;;;;;;;;5.17;100.00;96728.75;5387792;26;20374;-71
2024/04/17 08:10:38;;;;;;;;;;;;;;;5.28;100.00;96754.69;5383050;26;19929;-71
2024/04/17 08:13:12;;;;;;;;;;;;;;;5.33;100.00;96764.75;5384838;26;19939;-71
2024/04/17 08:15:43;;;;;;;;;;;;;;;5.43;100.00;96784.53;5384657;26;19929;-71
2024/04/17 08:18:11;;;;;;;;;;;;;;;5.48;100.00;96791.88;5382739;26;19930;-71
2024/04/17 08:20:39;;;;;;;;;;;;;;;5.55;100.00;96791.84;5387311;26;20063;-73
2024/04/17 08:23:07;;;;;;;;;;;;;;;5.63;100.00;96802.22;5386456;26;19930;-70
2024/04/17 08:25:34;;;;;;;;;;;;;;;5.57;100.00;96798.56;5365244;26;20461;-71
2024/04/17 08:28:02;;;;;;;;;;;;;;;5.54;100.00;96806.22;5385181;26;19936;-71
2024/04/17 08:30:29;;;;;;;;;;;;;;;5.62;100.00;96817.44;5384747;26;20337;-71
2024/04/17 08:32:56;;;;;;;;;;;;;;;5.65;100.00;96813.50;5383136;26;19933;-71
2024/04/17 08:35:24;;;;;;;;;;;;;;;5.66;100.00;96815.13;5384465;26;19930;-74
2024/04/17 08:37:51;;;;;;;;;;;;;;;5.71;100.00;96818.78;5386162;26;20384;-72
2024/04/17 08:40:19;;;;;;;;;;;;;;;5.75;100.00;96814.66;5382668;26;19929;-71
2024/04/17 08:42:47;;;;;;;;;;;;;;;5.83;100.00;96822.38;5396407;26;19929;-71
2024/04/17 08:45:15;;;;;;;;;;;;;;;5.80;100.00;96811.31;5379268;26;20306;-71
2024/04/17 08:47:43;;;;;;;;;;;;;;;5.66;100.00;96789.28;5384550;26;19958;-71
2024/04/17 08:50:13;;;;;;;;;;;;;;;5.62;100.00;96777.44;5383931;26;19956;-71
2024/04/17 08:52:42;;;;;;;;;;;;;;;5.58;100.00;96778.06;5385662;26;19929;-71
2024/04/17 08:55:11;;;;;;;;;;;;;;;5.65;100.00;96776.16;5387225;26;19940;-71
2024/04/17 08:57:39;;;;;;;;;;;;;;;5.65;100.00;96776.16;5389203;26;19928;-71
2024/04/17 09:00:07;;;;;;;;;;;;;;;5.66;100.00;96777.78;5387088;26;19930;-71
2024/04/17 09:02:35;;;;;;;;;;;;;;;5.64;100.00;96780.66;5389553;26;19941;-72
2024/04/17 09:05:04;;;;;;;;;;;;;;;5.66;100.00;96778.59;5387218;26;20461;-71
2024/04/17 09:07:32;;;;;;;;;;;;;;;5.75;100.00;96789.81;5389993;26;19929;-71
2024/04/17 09:09:59;;;;;;;;;;;;;;;5.74;100.00;96780.19;5388107;26;19929;-72
2024/04/17 09:12:27;;;;;;;;;;;;;;;5.71;100.00;96776.09;5386171;26;19930;-71
2024/04/17 09:14:57;;;;;;;;;;;;;;;5.79;100.00;96777.66;5385884;26;20404;-70
2024/04/17 09:17:24;;;;;;;;;;;;;;;5.65;100.00;96762.81;5385924;26;20068;-71
2024/04/17 09:19:56;;;;;;;;;;;;;;;5.71;100.00;96767.28;5388186;26;19935;-72
2024/04/17 09:22:24;;;;;;;;;;;;;;;5.55;100.00;96760.66;5397907;26;19929;-71
2024/04/17 09:24:51;;;;;;;;;;;;;;;5.60;100.00;96757.34;5396405;26;19929;-71
2024/04/17 09:27:19;;;;;;;;;;;;;;;5.51;100.00;96731.97;5391648;26;19929;-71
2024/04/17 09:29:46;;;;;;;;;;;;;;;5.45;100.00;96718.47;5384571;26;19939;-72
2024/04/17 09:32:18;;;;;;;;;;;;;;;5.34;100.00;96694.34;5385500;26;19935;-70
2024/04/17 09:34:45;;;;;;;;;;;;;;;5.28;100.00;96685.41;5385344;26;19929;-70
2024/04/17 09:37:13;;;;;;;;;;;;;;;4.99;100.00;96660.22;5387380;26;19929;-71
2024/04/17 09:39:40;;;;;;;;;;;;;;;4.80;100.00;96636.41;5385917;26;19928;-70
2024/04/17 09:42:08;;;;;;;;;;;;;;;4.77;100.00;96629.66;5389660;26;20321;-71
2024/04/17 09:44:39;;;;;;;;;;;;;;;4.77;100.00;96637.63;5387188;26;19929;-71
2024/04/17 09:47:10;;;;;;;;;;;;;;;4.83;100.00;96634.09;5385090;26;19936;-70
2024/04/17 09:49:43;;;;;;;;;;;;;;;4.67;100.00;96619.50;5383469;26;19929;-71
2024/04/17 09:52:14;;;;;;;;;;;;;;;4.49;100.00;96592.78;5385785;26;19936;-70
2024/04/17 09:54:45;;;;;;;;;;;;;;;4.45;100.00;96591.59;5389749;26;19929;-71
2024/04/17 09:57:12;;;;;;;;;;;;;;;4.37;100.00;96586.53;5385388;26;19930;-70
2024/04/17 09:59:41;;;;;;;;;;;;;;;4.31;100.00;96584.69;5387212;26;19963;-71
2024/04/17 10:02:16;;;;;;;;;;;;;;;4.24;100.00;96581.25;5384231;26;19936;-71
2024/04/17 10:04:45;;;;;;;;;;;;;;;4.29;100.00;96579.63;5387503;26;19928;-70
2024/04/17 10:07:13;;;;;;;;;;;;;;;4.24;100.00;96576.75;5387581;26;19929;-70
2024/04/17 10:09:41;;;;;;;;;;;;;;;4.33;100.00;96585.31;5386781;26;19936;-71
2024/04/17 10:12:10;;;;;;;;;;;;;;;4.32;100.00;96581.00;5386963;26;19935;-70
2024/04/17 10:14:38;;;;;;;;;;;;;;;4.42;100.00;96592.00;5384391;26;20389;-71
2024/04/17 10:17:07;;;;;;;;;;;;;;;4.60;100.00;96605.38;5389289;26;19935;-71
2024/04/17 10:19:54;;;;;;;;;;;;;;;4.66;100.00;96601.88;5383981;26;19935;-71
2024/04/17 10:22:22;;;;;;;;;;;;;;;4.77;100.00;96612.84;5382250;26;20448;-70
2024/04/17 10:24:50;;;;;;;;;;;;;;;4.77;100.00;96618.19;5379766;26;20358;-71
2024/04/17 10:27:20;;;;;;;;;;;;;;;4.78;100.00;96622.47;5385054;26;19931;-71
2024/04/17 10:29:48;;;;;;;;;;;;;;;4.83;100.00;96633.28;5387257;26;19959;-71
2024/04/17 10:32:15;;;;;;;;;;;;;;;4.91;100.00;96644.50;5354769;26;19936;-70
2024/04/17 10:34:47;;;;;;;;;;;;;;;5.04;100.00;96647.03;5388310;26;20375;-71
2024/04/17 10:37:17;;;;;;;;;;;;;;;5.22;100.00;96659.63;5388395;26;20303;-70
2024/04/17 10:39:45;;;;;;;;;;;;;;;5.34;100.00;96665.03;5384420;26;19948;-72
2024/04/17 10:42:16;;;;;;;;;;;;;;;5.35;100.00;96654.16;5387956;26;19929;-70
2024/04/17 10:44:51;;;;;;;;;;;;;;;5.45;100.00;96659.81;5380939;26;19935;-71
2024/04/17 10:47:25;;;;;;;;;;;;;;;5.58;100.00;96671.38;5383540;26;19929;-71
2024/04/17 10:49:59;;;;;;;;;;;;;;;5.73;100.00;96682.50;5386457;26;20352;-71
2024/04/17 10:52:29;;;;;;;;;;;;;;;5.86;100.00;96693.03;5385412;26;20461;-71
2024/04/17 10:54:59;;;;;;;;;;;;;;;5.97;100.00;96700.34;5383964;26;19929;-71
2024/04/17 10:57:30;;;;;;;;;;;;;;;6.03;100.00;96695.97;5386054;26;20341;-71
2024/04/17 10:59:57;;;;;;;;;;;;;;;6.16;100.00;96711.84;5385506;26;19930;-71
2024/04/17 11:02:24;;;;;;;;;;;;;;;6.33;100.00;96730.75;5386243;26;19929;-71
2024/04/17 11:04:52;;;;;;;;;;;;;;;6.55;100.00;96754.09;5387486;26;20288;-70
2024/04/17 11:07:20;;;;;;;;;;;;;;;6.70;100.00;96769.75;5387556;26;20287;-71
2024/04/17 11:09:47;;;;;;;;;;;;;;;6.86;100.00;96809.22;5382209;26;20973;-71
2024/04/17 11:12:15;;;;;;;;;;;;;;;6.93;100.00;96820.63;5382641;26;19930;-71
2024/04/17 11:14:43;;;;;;;;;;;;;;;6.95;100.00;96831.06;5386152;26;19935;-71
2024/04/17 11:17:10;;;;;;;;;;;;;;;6.95;100.00;96829.22;5387182;26;19960;-71
2024/04/17 11:19:39;;;;;;;;;;;;;;;7.04;100.00;96832.41;5386417;26;20260;-71
2024/04/17 11:22:10;;;;;;;;;;;;;;;7.14;100.00;96832.69;5385500;26;20274;-71
2024/04/17 11:24:37;;;;;;;;;;;;;;;7.24;100.00;96837.47;5396995;26;20378;-71
2024/04/17 11:27:07;;;;;;;;;;;;;;;7.22;100.00;96831.56;5388955;26;19928;-71
2024/04/17 11:29:37;;;;;;;;;;;;;;;7.18;100.00;96815.13;5388014;26;19929;-71
2024/04/17 11:32:14;;;;;;;;;;;;;;;7.23;100.00;96795.75;5386891;26;19937;-71
2024/04/17 11:34:42;;;;;;;;;;;;;;;7.23;100.00;96783.19;5387442;26;19929;-71
2024/04/17 11:37:09;;;;;;;;;;;;;;;7.21;100.00;96758.53;5385295;26;19933;-71
2024/04/17 11:39:37;;;;;;;;;;;;;;;7.22;100.00;96748.66;5385728;26;20360;-72
2024/04/17 11:42:11;;;;;;;;;;;;;;;7.22;100.00;96732.63;5385491;26;19929;-71
2024/04/17 11:44:39;;;;;;;;;;;;;;;7.24;100.00;96717.97;5382541;26;19929;-71
2024/04/17 11:47:11;;;;;;;;;;;;;;;7.06;100.00;96674.47;5384651;26;19935;-71
2024/04/17 11:49:39;;;;;;;;;;;;;;;6.87;100.00;96636.28;5384784;26;20484;-72
2024/04/17 11:52:10;;;;;;;;;;;;;;;6.44;100.00;96577.75;5383039;26;19936;-72
2024/04/17 11:54:38;;;;;;;;;;;;;;;6.09;100.00;96534.94;5387501;26;20013;-72
2024/04/17 11:57:06;;;;;;;;;;;;;;;5.69;100.00;96498.09;5384730;26;20398;-70
2024/04/17 11:59:37;;;;;;;;;;;;;;;5.17;100.00;96448.91;5386592;26;19929;-70
2024/04/17 12:02:04;;;;;;;;;;;;;;;5.01;100.00;96438.84;5385715;26;19929;-70
2024/04/17 12:04:32;;;;;;;;;;;;;;;5.06;100.00;96450.47;5385013;26;20770;-71
2024/04/17 12:07:00;;;;;;;;;;;;;;;5.11;100.00;96454.34;5380923;26;19930;-70
2024/04/17 12:09:29;;;;;;;;;;;;;;;5.05;100.00;96445.34;5382748;26;19930;-71
2024/04/17 12:11:57;;;;;;;;;;;;;;;5.11;100.00;96455.16;5385839;26;20375;-70
2024/04/17 12:14:24;;;;;;;;;;;;;;;5.19;100.00;96451.38;5380723;26;20300;-69
2024/04/17 12:16:52;;;;;;;;;;;;;;;5.14;100.00;96441.38;5382761;26;20285;-70
2024/04/17 12:19:19;;;;;;;;;;;;;;;5.13;100.00;96425.59;5382779;26;20378;-71
2024/04/17 12:21:46;;;;;;;;;;;;;;;5.05;100.00;96408.06;5382527;26;20367;-73
2024/04/17 12:24:19;;;;;;;;;;;;;;;5.00;100.00;96405.25;5384701;26;19929;-71
2024/04/17 12:26:50;;;;;;;;;;;;;;;4.98;100.00;96391.34;5387582;26;20406;-71
2024/04/17 12:29:18;;;;;;;;;;;;;;;5.14;100.00;96398.72;5387101;26;19930;-70
2024/04/17 12:31:45;;;;;;;;;;;;;;;5.17;100.00;96386.81;5384926;26;20447;-70
2024/04/17 12:34:12;;;;;;;;;;;;;;;5.23;100.00;96397.38;5400016;26;19929;-70
2024/04/17 12:36:40;;;;;;;;;;;;;;;5.26;100.00;96391.59;5388566;26;20368;-71
2024/04/17 12:39:08;;;;;;;;;;;;;;;5.35;100.00;96400.09;5386024;26;19929;-70
2024/04/17 12:41:35;;;;;;;;;;;;;;;5.49;100.00;96410.34;5388182;26;19930;-70
2024/04/17 12:44:02;;;;;;;;;;;;;;;5.51;100.00;96415.47;5383944;26;19935;-70
2024/04/17 12:46:30;;;;;;;;;;;;;;;5.58;100.00;96415.38;5389303;26;19940;-70
2024/04/17 12:48:58;;;;;;;;;;;;;;;5.72;100.00;96408.78;5388522;26;20466;-71
2024/04/17 12:51:25;;;;;;;;;;;;;;;5.81;100.00;96396.78;5387812;26;19929;-70
2024/04/17 12:53:52;;;;;;;;;;;;;;;5.67;100.00;96342.00;5389358;26;19936;-70